sensor_id;sensor_type;location;lat;lon;timestamp;P1;durP1;ratioP1;P2;durP2;ratioP2
1174;SDS011;576;48.418;10.074;2023-10-08T00:01:11;5.87;;;4.57;;
1174;SDS011;576;48.418;10.074;2023-10-08T00:03:41;4.27;;;3.97;;
1174;SDS011;576;48.418;10.074;2023-10-08T00:06:15;6.87;;;4.03;;
1174;SDS011;576;48.418;10.074;2023-10-08T00:08:46;4.30;;;4.00;;
1174;SDS011;576;48.418;10.074;2023-10-08T00:11:14;5.90;;;3.80;;
1174;SDS011;576;48.418;10.074;2023-10-08T00:13:43;4.40;;;4.10;;
1174;SDS011;576;48.418;10.074;2023-10-08T00:16:16;5.00;;;4.07;;
1174;SDS011;576;48.418;10.074;2023-10-08T00:18:48;4.47;;;3.97;;
1174;SDS011;576;48.418;10.074;2023-10-08T00:21:19;5.33;;;4.23;;
1174;SDS011;576;48.418;10.074;2023-10-08T00:23:53;4.30;;;3.90;;
1174;SDS011;576;48.418;10.074;2023-10-08T00:26:25;5.20;;;4.33;;
1174;SDS011;576;48.418;10.074;2023-10-08T00:28:57;4.37;;;3.93;;
1174;SDS011;576;48.418;10.074;2023-10-08T00:31:28;4.50;;;4.10;;
1174;SDS011;576;48.418;10.074;2023-10-08T00:34:03;4.07;;;3.77;;
1174;SDS011;576;48.418;10.074;2023-10-08T00:36:34;5.00;;;4.57;;
1174;SDS011;576;48.418;10.074;2023-10-08T00:39:03;4.37;;;4.07;;
1174;SDS011;576;48.418;10.074;2023-10-08T00:41:39;5.37;;;4.20;;
1174;SDS011;576;48.418;10.074;2023-10-08T00:44:09;4.10;;;3.70;;
1174;SDS011;576;48.418;10.074;2023-10-08T00:46:44;4.83;;;4.37;;
1174;SDS011;576;48.418;10.074;2023-10-08T00:49:15;5.90;;;4.80;;
1174;SDS011;576;48.418;10.074;2023-10-08T00:51:53;4.23;;;3.83;;
1174;SDS011;576;48.418;10.074;2023-10-08T00:54:44;5.40;;;4.90;;
1174;SDS011;576;48.418;10.074;2023-10-08T00:57:22;4.40;;;4.00;;
1174;SDS011;576;48.418;10.074;2023-10-08T00:59:55;4.43;;;4.07;;
1174;SDS011;576;48.418;10.074;2023-10-08T01:02:27;4.23;;;3.83;;
1174;SDS011;576;48.418;10.074;2023-10-08T01:05:10;3.90;;;3.60;;
1174;SDS011;576;48.418;10.074;2023-10-08T01:07:40;5.57;;;4.37;;
1174;SDS011;576;48.418;10.074;2023-10-08T01:10:12;4.70;;;4.30;;
1174;SDS011;576;48.418;10.074;2023-10-08T01:12:46;4.70;;;4.30;;
1174;SDS011;576;48.418;10.074;2023-10-08T01:15:30;3.87;;;3.57;;
1174;SDS011;576;48.418;10.074;2023-10-08T01:18:04;4.43;;;4.03;;
1174;SDS011;576;48.418;10.074;2023-10-08T01:20:41;4.13;;;3.73;;
1174;SDS011;576;48.418;10.074;2023-10-08T01:23:20;4.50;;;4.10;;
1174;SDS011;576;48.418;10.074;2023-10-08T01:25:49;4.93;;;4.43;;
1174;SDS011;576;48.418;10.074;2023-10-08T01:28:19;4.47;;;3.60;;
1174;SDS011;576;48.418;10.074;2023-10-08T01:30:57;4.63;;;4.23;;
1174;SDS011;576;48.418;10.074;2023-10-08T01:33:27;4.63;;;4.00;;
1174;SDS011;576;48.418;10.074;2023-10-08T01:35:56;5.03;;;4.33;;
1174;SDS011;576;48.418;10.074;2023-10-08T01:38:31;4.50;;;4.20;;
1174;SDS011;576;48.418;10.074;2023-10-08T01:41:00;5.20;;;4.63;;
1174;SDS011;576;48.418;10.074;2023-10-08T01:43:36;4.73;;;4.33;;
1174;SDS011;576;48.418;10.074;2023-10-08T01:46:05;4.33;;;3.93;;
1174;SDS011;576;48.418;10.074;2023-10-08T01:48:38;4.30;;;3.90;;
1174;SDS011;576;48.418;10.074;2023-10-08T01:51:06;5.43;;;3.90;;
1174;SDS011;576;48.418;10.074;2023-10-08T01:53:39;3.70;;;3.03;;
1174;SDS011;576;48.418;10.074;2023-10-08T01:56:08;4.67;;;4.20;;
1174;SDS011;576;48.418;10.074;2023-10-08T01:58:46;4.67;;;4.23;;
1174;SDS011;576;48.418;10.074;2023-10-08T02:01:18;5.70;;;4.40;;
1174;SDS011;576;48.418;10.074;2023-10-08T02:03:47;4.47;;;3.70;;
1174;SDS011;576;48.418;10.074;2023-10-08T02:06:17;4.77;;;4.27;;
1174;SDS011;576;48.418;10.074;2023-10-08T02:08:48;5.07;;;4.57;;
1174;SDS011;576;48.418;10.074;2023-10-08T02:11:17;4.80;;;4.30;;
1174;SDS011;576;48.418;10.074;2023-10-08T02:13:46;4.60;;;4.20;;
1174;SDS011;576;48.418;10.074;2023-10-08T02:16:17;4.20;;;3.77;;
1174;SDS011;576;48.418;10.074;2023-10-08T02:18:46;4.40;;;4.00;;
1174;SDS011;576;48.418;10.074;2023-10-08T02:21:17;4.53;;;4.13;;
1174;SDS011;576;48.418;10.074;2023-10-08T02:23:45;3.93;;;3.60;;
1174;SDS011;576;48.418;10.074;2023-10-08T02:26:16;4.57;;;4.17;;
1174;SDS011;576;48.418;10.074;2023-10-08T02:28:46;4.20;;;3.90;;
1174;SDS011;576;48.418;10.074;2023-10-08T02:31:15;4.37;;;4.07;;
1174;SDS011;576;48.418;10.074;2023-10-08T02:33:44;4.40;;;3.97;;
1174;SDS011;576;48.418;10.074;2023-10-08T02:36:12;3.63;;;3.33;;
1174;SDS011;576;48.418;10.074;2023-10-08T02:38:41;4.40;;;4.00;;
1174;SDS011;576;48.418;10.074;2023-10-08T02:41:10;4.20;;;3.80;;
1174;SDS011;576;48.418;10.074;2023-10-08T02:43:44;6.67;;;4.77;;
1174;SDS011;576;48.418;10.074;2023-10-08T02:46:15;5.07;;;4.00;;
1174;SDS011;576;48.418;10.074;2023-10-08T02:48:44;4.50;;;4.10;;
1174;SDS011;576;48.418;10.074;2023-10-08T02:51:13;5.07;;;4.57;;
1174;SDS011;576;48.418;10.074;2023-10-08T02:53:41;4.47;;;4.10;;
1174;SDS011;576;48.418;10.074;2023-10-08T02:56:10;4.67;;;4.27;;
1174;SDS011;576;48.418;10.074;2023-10-08T02:58:43;7.00;;;5.13;;
1174;SDS011;576;48.418;10.074;2023-10-08T03:01:13;4.80;;;3.83;;
1174;SDS011;576;48.418;10.074;2023-10-08T03:03:41;4.90;;;3.73;;
1174;SDS011;576;48.418;10.074;2023-10-08T03:06:10;4.27;;;3.87;;
1174;SDS011;576;48.418;10.074;2023-10-08T03:08:41;4.53;;;4.13;;
1174;SDS011;576;48.418;10.074;2023-10-08T03:11:10;4.17;;;3.77;;
1174;SDS011;576;48.418;10.074;2023-10-08T03:13:45;5.10;;;4.63;;
1174;SDS011;576;48.418;10.074;2023-10-08T03:16:18;3.90;;;3.23;;
1174;SDS011;576;48.418;10.074;2023-10-08T03:18:54;3.50;;;3.20;;
1174;SDS011;576;48.418;10.074;2023-10-08T03:21:24;3.63;;;3.33;;
1174;SDS011;576;48.418;10.074;2023-10-08T03:24:15;3.80;;;3.50;;
1174;SDS011;576;48.418;10.074;2023-10-08T03:26:56;4.70;;;4.30;;
1174;SDS011;576;48.418;10.074;2023-10-08T03:29:35;4.37;;;3.97;;
1174;SDS011;576;48.418;10.074;2023-10-08T03:32:11;4.30;;;3.90;;
1174;SDS011;576;48.418;10.074;2023-10-08T03:34:43;3.70;;;3.40;;
1174;SDS011;576;48.418;10.074;2023-10-08T03:37:13;4.30;;;3.90;;
1174;SDS011;576;48.418;10.074;2023-10-08T03:39:47;4.70;;;3.90;;
1174;SDS011;576;48.418;10.074;2023-10-08T03:42:19;5.33;;;4.33;;
1174;SDS011;576;48.418;10.074;2023-10-08T03:44:50;4.30;;;3.90;;
1174;SDS011;576;48.418;10.074;2023-10-08T03:47:19;4.60;;;4.20;;
1174;SDS011;576;48.418;10.074;2023-10-08T03:49:49;4.53;;;4.10;;
1174;SDS011;576;48.418;10.074;2023-10-08T03:52:18;5.20;;;3.80;;
1174;SDS011;576;48.418;10.074;2023-10-08T03:54:49;4.03;;;3.73;;
1174;SDS011;576;48.418;10.074;2023-10-08T03:57:31;4.13;;;3.73;;
1174;SDS011;576;48.418;10.074;2023-10-08T04:00:11;5.87;;;4.37;;
1174;SDS011;576;48.418;10.074;2023-10-08T04:02:44;5.10;;;4.30;;
1174;SDS011;576;48.418;10.074;2023-10-08T04:05:21;4.47;;;4.07;;
1174;SDS011;576;48.418;10.074;2023-10-08T04:07:54;4.17;;;3.80;;
1174;SDS011;576;48.418;10.074;2023-10-08T04:10:43;4.50;;;4.10;;
1174;SDS011;576;48.418;10.074;2023-10-08T04:13:31;4.80;;;4.20;;
1174;SDS011;576;48.418;10.074;2023-10-08T04:16:00;5.33;;;3.93;;
1174;SDS011;576;48.418;10.074;2023-10-08T04:18:31;4.80;;;4.40;;
1174;SDS011;576;48.418;10.074;2023-10-08T04:21:06;4.37;;;3.77;;
1174;SDS011;576;48.418;10.074;2023-10-08T04:23:39;6.47;;;4.50;;
1174;SDS011;576;48.418;10.074;2023-10-08T04:26:10;4.37;;;4.00;;
1174;SDS011;576;48.418;10.074;2023-10-08T04:28:39;4.50;;;4.00;;
1174;SDS011;576;48.418;10.074;2023-10-08T04:31:09;4.60;;;4.20;;
1174;SDS011;576;48.418;10.074;2023-10-08T04:33:43;4.50;;;4.10;;
1174;SDS011;576;48.418;10.074;2023-10-08T04:36:14;4.00;;;3.60;;
1174;SDS011;576;48.418;10.074;2023-10-08T04:38:46;4.00;;;3.70;;
1174;SDS011;576;48.418;10.074;2023-10-08T04:41:20;4.17;;;3.77;;
1174;SDS011;576;48.418;10.074;2023-10-08T04:43:54;4.57;;;4.17;;
1174;SDS011;576;48.418;10.074;2023-10-08T04:46:24;5.00;;;4.50;;
1174;SDS011;576;48.418;10.074;2023-10-08T04:49:13;5.47;;;4.57;;
1174;SDS011;576;48.418;10.074;2023-10-08T04:51:54;4.50;;;4.10;;
1174;SDS011;576;48.418;10.074;2023-10-08T04:54:25;5.17;;;4.73;;
1174;SDS011;576;48.418;10.074;2023-10-08T04:56:57;4.60;;;4.20;;
1174;SDS011;576;48.418;10.074;2023-10-08T04:59:26;4.30;;;3.87;;
1174;SDS011;576;48.418;10.074;2023-10-08T05:02:02;4.10;;;3.70;;
1174;SDS011;576;48.418;10.074;2023-10-08T05:04:47;4.80;;;4.40;;
1174;SDS011;576;48.418;10.074;2023-10-08T05:07:30;4.67;;;4.20;;
1174;SDS011;576;48.418;10.074;2023-10-08T05:10:27;5.03;;;4.60;;
1174;SDS011;576;48.418;10.074;2023-10-08T05:12:58;5.70;;;5.10;;
1174;SDS011;576;48.418;10.074;2023-10-08T05:15:40;4.53;;;4.13;;
1174;SDS011;576;48.418;10.074;2023-10-08T05:18:17;5.13;;;4.63;;
1174;SDS011;576;48.418;10.074;2023-10-08T05:20:50;4.93;;;4.10;;
1174;SDS011;576;48.418;10.074;2023-10-08T05:23:41;4.50;;;4.10;;
1174;SDS011;576;48.418;10.074;2023-10-08T05:26:37;4.63;;;3.90;;
1174;SDS011;576;48.418;10.074;2023-10-08T05:29:11;4.33;;;3.93;;
1174;SDS011;576;48.418;10.074;2023-10-08T05:31:57;4.37;;;3.97;;
1174;SDS011;576;48.418;10.074;2023-10-08T05:34:40;5.70;;;4.00;;
1174;SDS011;576;48.418;10.074;2023-10-08T05:37:22;5.00;;;4.50;;
1174;SDS011;576;48.418;10.074;2023-10-08T05:40:04;4.53;;;4.13;;
1174;SDS011;576;48.418;10.074;2023-10-08T05:42:47;4.57;;;4.13;;
1174;SDS011;576;48.418;10.074;2023-10-08T05:45:27;3.97;;;3.67;;
1174;SDS011;576;48.418;10.074;2023-10-08T05:48:01;5.93;;;5.13;;
1174;SDS011;576;48.418;10.074;2023-10-08T05:50:43;4.70;;;4.10;;
1174;SDS011;576;48.418;10.074;2023-10-08T05:53:23;5.03;;;3.93;;
1174;SDS011;576;48.418;10.074;2023-10-08T05:56:10;6.23;;;4.57;;
1174;SDS011;576;48.418;10.074;2023-10-08T05:58:55;4.53;;;4.13;;
1174;SDS011;576;48.418;10.074;2023-10-08T06:01:41;5.10;;;4.10;;
1174;SDS011;576;48.418;10.074;2023-10-08T06:04:12;4.30;;;3.90;;
1174;SDS011;576;48.418;10.074;2023-10-08T06:07:10;4.03;;;3.60;;
1174;SDS011;576;48.418;10.074;2023-10-08T06:09:59;5.03;;;4.40;;
1174;SDS011;576;48.418;10.074;2023-10-08T06:12:29;4.23;;;3.90;;
1174;SDS011;576;48.418;10.074;2023-10-08T06:15:06;4.67;;;4.27;;
1174;SDS011;576;48.418;10.074;2023-10-08T06:17:34;5.30;;;4.07;;
1174;SDS011;576;48.418;10.074;2023-10-08T06:20:33;4.37;;;3.97;;
1174;SDS011;576;48.418;10.074;2023-10-08T06:23:03;4.73;;;3.87;;
1174;SDS011;576;48.418;10.074;2023-10-08T06:25:33;4.83;;;4.33;;
1174;SDS011;576;48.418;10.074;2023-10-08T06:28:12;4.20;;;3.80;;
1174;SDS011;576;48.418;10.074;2023-10-08T06:30:42;4.63;;;4.23;;
1174;SDS011;576;48.418;10.074;2023-10-08T06:33:13;4.50;;;3.80;;
1174;SDS011;576;48.418;10.074;2023-10-08T06:35:43;5.40;;;3.67;;
1174;SDS011;576;48.418;10.074;2023-10-08T06:38:20;3.87;;;3.57;;
1174;SDS011;576;48.418;10.074;2023-10-08T06:40:50;5.53;;;4.40;;
1174;SDS011;576;48.418;10.074;2023-10-08T06:43:19;4.30;;;3.73;;
1174;SDS011;576;48.418;10.074;2023-10-08T06:45:51;4.50;;;4.10;;
1174;SDS011;576;48.418;10.074;2023-10-08T06:48:20;4.77;;;4.30;;
1174;SDS011;576;48.418;10.074;2023-10-08T06:50:51;4.47;;;3.93;;
1174;SDS011;576;48.418;10.074;2023-10-08T06:53:25;4.97;;;4.47;;
1174;SDS011;576;48.418;10.074;2023-10-08T06:55:56;5.17;;;4.23;;
1174;SDS011;576;48.418;10.074;2023-10-08T06:58:30;3.97;;;3.57;;
1174;SDS011;576;48.418;10.074;2023-10-08T07:00:58;4.60;;;3.87;;
1174;SDS011;576;48.418;10.074;2023-10-08T07:03:31;4.47;;;3.90;;
1174;SDS011;576;48.418;10.074;2023-10-08T07:06:01;4.37;;;4.07;;
1174;SDS011;576;48.418;10.074;2023-10-08T07:08:38;5.23;;;4.73;;
1174;SDS011;576;48.418;10.074;2023-10-08T07:11:07;4.93;;;4.40;;
1174;SDS011;576;48.418;10.074;2023-10-08T07:13:38;6.13;;;4.10;;
1174;SDS011;576;48.418;10.074;2023-10-08T07:16:09;4.43;;;4.03;;
1174;SDS011;576;48.418;10.074;2023-10-08T07:18:38;3.90;;;3.20;;
1174;SDS011;576;48.418;10.074;2023-10-08T07:21:11;4.10;;;3.70;;
1174;SDS011;576;48.418;10.074;2023-10-08T07:23:42;5.17;;;4.13;;
1174;SDS011;576;48.418;10.074;2023-10-08T07:26:23;4.30;;;3.70;;
1174;SDS011;576;48.418;10.074;2023-10-08T07:28:53;4.40;;;4.00;;
1174;SDS011;576;48.418;10.074;2023-10-08T07:31:22;4.33;;;3.93;;
1174;SDS011;576;48.418;10.074;2023-10-08T07:33:55;3.97;;;3.57;;
1174;SDS011;576;48.418;10.074;2023-10-08T07:36:25;4.80;;;4.23;;
1174;SDS011;576;48.418;10.074;2023-10-08T07:38:57;4.03;;;3.73;;
1174;SDS011;576;48.418;10.074;2023-10-08T07:41:30;4.00;;;3.40;;
1174;SDS011;576;48.418;10.074;2023-10-08T07:43:58;4.10;;;3.70;;
1174;SDS011;576;48.418;10.074;2023-10-08T07:46:26;3.53;;;3.23;;
1174;SDS011;576;48.418;10.074;2023-10-08T07:48:55;5.27;;;4.50;;
1174;SDS011;576;48.418;10.074;2023-10-08T07:51:24;5.37;;;4.87;;
1174;SDS011;576;48.418;10.074;2023-10-08T07:53:54;7.13;;;4.80;;
1174;SDS011;576;48.418;10.074;2023-10-08T07:56:24;8.47;;;4.30;;
1174;SDS011;576;48.418;10.074;2023-10-08T07:58:53;10.57;;;5.77;;
1174;SDS011;576;48.418;10.074;2023-10-08T08:01:22;10.43;;;5.10;;
1174;SDS011;576;48.418;10.074;2023-10-08T08:03:52;7.30;;;4.40;;
1174;SDS011;576;48.418;10.074;2023-10-08T08:06:21;5.57;;;4.67;;
1174;SDS011;576;48.418;10.074;2023-10-08T08:08:52;8.37;;;5.03;;
1174;SDS011;576;48.418;10.074;2023-10-08T08:11:22;14.70;;;6.70;;
1174;SDS011;576;48.418;10.074;2023-10-08T08:13:54;10.03;;;5.20;;
1174;SDS011;576;48.418;10.074;2023-10-08T08:16:22;15.00;;;6.83;;
1174;SDS011;576;48.418;10.074;2023-10-08T08:18:53;12.00;;;5.97;;
1174;SDS011;576;48.418;10.074;2023-10-08T08:21:23;10.00;;;6.27;;
1174;SDS011;576;48.418;10.074;2023-10-08T08:23:52;10.57;;;5.63;;
1174;SDS011;576;48.418;10.074;2023-10-08T08:26:31;14.90;;;6.37;;
1174;SDS011;576;48.418;10.074;2023-10-08T08:29:07;15.00;;;7.90;;
1174;SDS011;576;48.418;10.074;2023-10-08T08:31:42;8.00;;;5.83;;
1174;SDS011;576;48.418;10.074;2023-10-08T08:34:13;11.17;;;6.23;;
1174;SDS011;576;48.418;10.074;2023-10-08T08:36:46;17.13;;;5.20;;
1174;SDS011;576;48.418;10.074;2023-10-08T08:39:15;8.93;;;5.07;;
1174;SDS011;576;48.418;10.074;2023-10-08T08:41:57;10.80;;;6.53;;
1174;SDS011;576;48.418;10.074;2023-10-08T08:44:29;8.73;;;5.47;;
1174;SDS011;576;48.418;10.074;2023-10-08T08:46:59;10.63;;;5.33;;
1174;SDS011;576;48.418;10.074;2023-10-08T08:49:32;7.00;;;5.53;;
1174;SDS011;576;48.418;10.074;2023-10-08T08:52:03;10.57;;;5.73;;
1174;SDS011;576;48.418;10.074;2023-10-08T08:54:32;9.23;;;5.40;;
1174;SDS011;576;48.418;10.074;2023-10-08T08:57:04;7.23;;;6.33;;
1174;SDS011;576;48.418;10.074;2023-10-08T08:59:44;17.47;;;6.40;;
1174;SDS011;576;48.418;10.074;2023-10-08T09:02:19;10.10;;;4.70;;
1174;SDS011;576;48.418;10.074;2023-10-08T09:04:49;10.40;;;5.17;;
1174;SDS011;576;48.418;10.074;2023-10-08T09:07:21;10.60;;;5.10;;
1174;SDS011;576;48.418;10.074;2023-10-08T09:09:52;7.93;;;4.73;;
1174;SDS011;576;48.418;10.074;2023-10-08T09:12:26;7.30;;;5.50;;
1174;SDS011;576;48.418;10.074;2023-10-08T09:15:01;10.97;;;5.40;;
1174;SDS011;576;48.418;10.074;2023-10-08T09:17:31;8.50;;;5.97;;
1174;SDS011;576;48.418;10.074;2023-10-08T09:20:00;6.87;;;4.80;;
1174;SDS011;576;48.418;10.074;2023-10-08T09:22:33;10.80;;;5.43;;
1174;SDS011;576;48.418;10.074;2023-10-08T09:25:02;8.60;;;5.20;;
1174;SDS011;576;48.418;10.074;2023-10-08T09:27:33;13.70;;;5.50;;
1174;SDS011;576;48.418;10.074;2023-10-08T09:30:06;12.00;;;5.27;;
1174;SDS011;576;48.418;10.074;2023-10-08T09:32:38;8.13;;;4.43;;
1174;SDS011;576;48.418;10.074;2023-10-08T09:35:07;7.63;;;4.57;;
1174;SDS011;576;48.418;10.074;2023-10-08T09:37:40;10.07;;;6.50;;
1174;SDS011;576;48.418;10.074;2023-10-08T09:40:09;7.57;;;5.07;;
1174;SDS011;576;48.418;10.074;2023-10-08T09:42:39;9.10;;;4.73;;
1174;SDS011;576;48.418;10.074;2023-10-08T09:45:11;7.90;;;4.60;;
1174;SDS011;576;48.418;10.074;2023-10-08T09:47:41;9.30;;;4.57;;
1174;SDS011;576;48.418;10.074;2023-10-08T09:50:14;11.33;;;5.90;;
1174;SDS011;576;48.418;10.074;2023-10-08T09:52:46;9.60;;;4.20;;
1174;SDS011;576;48.418;10.074;2023-10-08T09:55:23;5.50;;;4.50;;
1174;SDS011;576;48.418;10.074;2023-10-08T09:57:52;11.43;;;4.60;;
1174;SDS011;576;48.418;10.074;2023-10-08T10:00:23;5.80;;;4.63;;
1174;SDS011;576;48.418;10.074;2023-10-08T10:02:58;8.10;;;5.00;;
1174;SDS011;576;48.418;10.074;2023-10-08T10:05:31;9.90;;;4.50;;
1174;SDS011;576;48.418;10.074;2023-10-08T10:08:02;6.83;;;4.13;;
1174;SDS011;576;48.418;10.074;2023-10-08T10:10:32;7.40;;;4.83;;
1174;SDS011;576;48.418;10.074;2023-10-08T10:13:02;10.23;;;4.97;;
1174;SDS011;576;48.418;10.074;2023-10-08T10:15:33;6.70;;;4.67;;
1174;SDS011;576;48.418;10.074;2023-10-08T10:18:08;5.47;;;4.30;;
1174;SDS011;576;48.418;10.074;2023-10-08T10:20:44;6.30;;;4.50;;
1174;SDS011;576;48.418;10.074;2023-10-08T10:26:04;6.40;;;4.33;;
1174;SDS011;576;48.418;10.074;2023-10-08T10:28:36;5.57;;;4.57;;
1174;SDS011;576;48.418;10.074;2023-10-08T10:31:06;9.77;;;5.17;;
1174;SDS011;576;48.418;10.074;2023-10-08T10:33:46;6.50;;;4.37;;
1174;SDS011;576;48.418;10.074;2023-10-08T10:36:16;9.20;;;4.47;;
1174;SDS011;576;48.418;10.074;2023-10-08T10:38:49;8.50;;;4.47;;
1174;SDS011;576;48.418;10.074;2023-10-08T10:41:20;7.43;;;4.00;;
1174;SDS011;576;48.418;10.074;2023-10-08T10:43:49;5.63;;;4.30;;
1174;SDS011;576;48.418;10.074;2023-10-08T10:46:21;6.87;;;4.33;;
1174;SDS011;576;48.418;10.074;2023-10-08T10:48:58;7.10;;;4.70;;
1174;SDS011;576;48.418;10.074;2023-10-08T10:51:34;8.17;;;4.17;;
1174;SDS011;576;48.418;10.074;2023-10-08T10:54:03;7.73;;;4.43;;
1174;SDS011;576;48.418;10.074;2023-10-08T10:56:35;8.53;;;4.30;;
1174;SDS011;576;48.418;10.074;2023-10-08T10:59:10;8.30;;;3.93;;
1174;SDS011;576;48.418;10.074;2023-10-08T11:01:51;7.17;;;5.97;;
1174;SDS011;576;48.418;10.074;2023-10-08T11:04:36;8.63;;;4.30;;
1174;SDS011;576;48.418;10.074;2023-10-08T11:07:17;7.90;;;4.80;;
1174;SDS011;576;48.418;10.074;2023-10-08T11:09:47;5.93;;;4.20;;
1174;SDS011;576;48.418;10.074;2023-10-08T11:12:18;10.33;;;4.60;;
1174;SDS011;576;48.418;10.074;2023-10-08T11:14:50;4.97;;;4.13;;
1174;SDS011;576;48.418;10.074;2023-10-08T11:17:24;5.83;;;4.27;;
1174;SDS011;576;48.418;10.074;2023-10-08T11:19:55;5.40;;;4.57;;
1174;SDS011;576;48.418;10.074;2023-10-08T11:22:28;4.43;;;3.93;;
1174;SDS011;576;48.418;10.074;2023-10-08T11:25:20;6.00;;;4.40;;
1174;SDS011;576;48.418;10.074;2023-10-08T11:27:54;5.43;;;3.83;;
1174;SDS011;576;48.418;10.074;2023-10-08T11:30:28;5.53;;;4.10;;
1174;SDS011;576;48.418;10.074;2023-10-08T11:32:59;4.20;;;3.10;;
1174;SDS011;576;48.418;10.074;2023-10-08T11:35:28;8.70;;;3.97;;
1174;SDS011;576;48.418;10.074;2023-10-08T11:38:00;4.50;;;3.80;;
1174;SDS011;576;48.418;10.074;2023-10-08T11:40:29;6.60;;;4.13;;
1174;SDS011;576;48.418;10.074;2023-10-08T11:43:15;5.17;;;4.10;;
1174;SDS011;576;48.418;10.074;2023-10-08T11:45:43;7.90;;;5.47;;
1174;SDS011;576;48.418;10.074;2023-10-08T11:48:16;5.33;;;4.10;;
1174;SDS011;576;48.418;10.074;2023-10-08T11:50:52;5.60;;;3.50;;
1174;SDS011;576;48.418;10.074;2023-10-08T11:53:23;6.37;;;4.03;;
1174;SDS011;576;48.418;10.074;2023-10-08T11:55:52;7.93;;;4.67;;
1174;SDS011;576;48.418;10.074;2023-10-08T11:58:23;6.27;;;3.90;;
1174;SDS011;576;48.418;10.074;2023-10-08T12:01:04;5.33;;;3.33;;
1174;SDS011;576;48.418;10.074;2023-10-08T12:03:35;4.40;;;3.50;;
1174;SDS011;576;48.418;10.074;2023-10-08T12:06:05;4.50;;;4.10;;
1174;SDS011;576;48.418;10.074;2023-10-08T12:08:35;5.43;;;3.67;;
1174;SDS011;576;48.418;10.074;2023-10-08T12:11:06;5.90;;;3.43;;
1174;SDS011;576;48.418;10.074;2023-10-08T12:13:38;4.33;;;3.63;;
1174;SDS011;576;48.418;10.074;2023-10-08T12:16:11;4.13;;;3.70;;
1174;SDS011;576;48.418;10.074;2023-10-08T12:18:47;6.03;;;4.80;;
1174;SDS011;576;48.418;10.074;2023-10-08T12:21:20;4.20;;;3.53;;
1174;SDS011;576;48.418;10.074;2023-10-08T12:23:51;7.70;;;3.80;;
1174;SDS011;576;48.418;10.074;2023-10-08T12:26:21;5.53;;;3.63;;
1174;SDS011;576;48.418;10.074;2023-10-08T12:28:50;5.50;;;4.20;;
1174;SDS011;576;48.418;10.074;2023-10-08T12:31:20;5.27;;;3.67;;
1174;SDS011;576;48.418;10.074;2023-10-08T12:33:51;3.80;;;3.30;;
1174;SDS011;576;48.418;10.074;2023-10-08T12:36:20;4.53;;;3.87;;
1174;SDS011;576;48.418;10.074;2023-10-08T12:38:50;7.47;;;4.37;;
1174;SDS011;576;48.418;10.074;2023-10-08T12:41:24;4.30;;;3.90;;
1174;SDS011;576;48.418;10.074;2023-10-08T12:43:54;11.23;;;3.90;;
1174;SDS011;576;48.418;10.074;2023-10-08T12:46:24;8.97;;;3.60;;
1174;SDS011;576;48.418;10.074;2023-10-08T12:48:58;7.70;;;3.57;;
1174;SDS011;576;48.418;10.074;2023-10-08T12:51:28;8.70;;;3.90;;
1174;SDS011;576;48.418;10.074;2023-10-08T12:54:00;9.03;;;5.00;;
1174;SDS011;576;48.418;10.074;2023-10-08T12:56:33;3.93;;;3.60;;
1174;SDS011;576;48.418;10.074;2023-10-08T12:59:14;7.10;;;4.30;;
1174;SDS011;576;48.418;10.074;2023-10-08T13:01:48;4.83;;;3.83;;
1174;SDS011;576;48.418;10.074;2023-10-08T13:04:22;6.87;;;3.93;;
1174;SDS011;576;48.418;10.074;2023-10-08T13:06:56;6.47;;;3.73;;
1174;SDS011;576;48.418;10.074;2023-10-08T13:09:28;8.23;;;4.30;;
1174;SDS011;576;48.418;10.074;2023-10-08T13:11:58;7.53;;;4.30;;
1174;SDS011;576;48.418;10.074;2023-10-08T13:14:27;7.30;;;3.93;;
1174;SDS011;576;48.418;10.074;2023-10-08T13:16:55;9.40;;;5.50;;
1174;SDS011;576;48.418;10.074;2023-10-08T13:19:25;8.23;;;5.43;;
1174;SDS011;576;48.418;10.074;2023-10-08T13:21:53;4.97;;;4.30;;
1174;SDS011;576;48.418;10.074;2023-10-08T13:24:21;5.90;;;4.10;;
1174;SDS011;576;48.418;10.074;2023-10-08T13:26:51;5.70;;;3.97;;
1174;SDS011;576;48.418;10.074;2023-10-08T13:29:20;8.60;;;3.50;;
1174;SDS011;576;48.418;10.074;2023-10-08T13:31:48;7.97;;;4.40;;
1174;SDS011;576;48.418;10.074;2023-10-08T13:34:16;6.73;;;5.30;;
1174;SDS011;576;48.418;10.074;2023-10-08T13:36:46;8.33;;;4.77;;
1174;SDS011;576;48.418;10.074;2023-10-08T13:39:16;6.70;;;4.33;;
1174;SDS011;576;48.418;10.074;2023-10-08T13:41:46;7.27;;;4.50;;
1174;SDS011;576;48.418;10.074;2023-10-08T13:44:15;7.67;;;5.20;;
1174;SDS011;576;48.418;10.074;2023-10-08T13:46:44;5.47;;;4.37;;
1174;SDS011;576;48.418;10.074;2023-10-08T13:49:16;8.33;;;4.50;;
1174;SDS011;576;48.418;10.074;2023-10-08T13:51:47;4.97;;;3.87;;
1174;SDS011;576;48.418;10.074;2023-10-08T13:54:23;7.40;;;5.03;;
1174;SDS011;576;48.418;10.074;2023-10-08T13:56:55;6.30;;;4.47;;
1174;SDS011;576;48.418;10.074;2023-10-08T13:59:25;9.03;;;4.67;;
1174;SDS011;576;48.418;10.074;2023-10-08T14:01:58;6.93;;;4.90;;
1174;SDS011;576;48.418;10.074;2023-10-08T14:04:29;9.60;;;4.90;;
1174;SDS011;576;48.418;10.074;2023-10-08T14:07:02;4.30;;;3.67;;
1174;SDS011;576;48.418;10.074;2023-10-08T14:09:31;6.07;;;4.27;;
1174;SDS011;576;48.418;10.074;2023-10-08T14:12:04;5.70;;;4.23;;
1174;SDS011;576;48.418;10.074;2023-10-08T14:14:34;9.63;;;5.97;;
1174;SDS011;576;48.418;10.074;2023-10-08T14:17:03;6.80;;;4.00;;
1174;SDS011;576;48.418;10.074;2023-10-08T14:19:35;8.23;;;4.70;;
1174;SDS011;576;48.418;10.074;2023-10-08T14:22:08;9.40;;;5.20;;
1174;SDS011;576;48.418;10.074;2023-10-08T14:24:41;7.57;;;4.37;;
1174;SDS011;576;48.418;10.074;2023-10-08T14:27:13;7.27;;;4.23;;
1174;SDS011;576;48.418;10.074;2023-10-08T14:29:43;6.50;;;4.67;;
1174;SDS011;576;48.418;10.074;2023-10-08T14:32:13;7.00;;;4.10;;
1174;SDS011;576;48.418;10.074;2023-10-08T14:34:42;6.07;;;4.10;;
1174;SDS011;576;48.418;10.074;2023-10-08T14:37:29;8.20;;;5.03;;
1174;SDS011;576;48.418;10.074;2023-10-08T14:40:15;6.80;;;4.63;;
1174;SDS011;576;48.418;10.074;2023-10-08T14:43:00;5.63;;;3.97;;
1174;SDS011;576;48.418;10.074;2023-10-08T14:45:31;5.40;;;4.90;;
1174;SDS011;576;48.418;10.074;2023-10-08T14:48:03;6.97;;;4.60;;
1174;SDS011;576;48.418;10.074;2023-10-08T14:50:38;6.53;;;4.00;;
1174;SDS011;576;48.418;10.074;2023-10-08T14:53:10;6.83;;;4.60;;
1174;SDS011;576;48.418;10.074;2023-10-08T14:55:39;5.40;;;4.27;;
1174;SDS011;576;48.418;10.074;2023-10-08T14:58:07;4.20;;;3.80;;
1174;SDS011;576;48.418;10.074;2023-10-08T15:00:37;5.70;;;4.43;;
1174;SDS011;576;48.418;10.074;2023-10-08T15:03:08;7.20;;;4.60;;
1174;SDS011;576;48.418;10.074;2023-10-08T15:05:38;6.33;;;3.47;;
1174;SDS011;576;48.418;10.074;2023-10-08T15:08:07;4.97;;;4.20;;
1174;SDS011;576;48.418;10.074;2023-10-08T15:10:39;5.87;;;4.23;;
1174;SDS011;576;48.418;10.074;2023-10-08T15:13:07;7.23;;;4.43;;
1174;SDS011;576;48.418;10.074;2023-10-08T15:15:36;6.10;;;4.30;;
1174;SDS011;576;48.418;10.074;2023-10-08T15:18:06;6.90;;;4.30;;
1174;SDS011;576;48.418;10.074;2023-10-08T15:20:38;6.63;;;4.33;;
1174;SDS011;576;48.418;10.074;2023-10-08T15:23:08;8.97;;;4.50;;
1174;SDS011;576;48.418;10.074;2023-10-08T15:25:40;8.10;;;4.97;;
1174;SDS011;576;48.418;10.074;2023-10-08T15:28:08;6.20;;;4.47;;
1174;SDS011;576;48.418;10.074;2023-10-08T15:30:37;4.07;;;3.67;;
1174;SDS011;576;48.418;10.074;2023-10-08T15:33:06;6.17;;;3.33;;
1174;SDS011;576;48.418;10.074;2023-10-08T15:35:35;4.77;;;4.10;;
1174;SDS011;576;48.418;10.074;2023-10-08T15:38:03;5.00;;;4.30;;
1174;SDS011;576;48.418;10.074;2023-10-08T15:40:31;7.93;;;3.73;;
1174;SDS011;576;48.418;10.074;2023-10-08T15:43:02;6.50;;;4.27;;
1174;SDS011;576;48.418;10.074;2023-10-08T15:45:30;8.47;;;5.10;;
1174;SDS011;576;48.418;10.074;2023-10-08T15:47:59;5.43;;;4.43;;
1174;SDS011;576;48.418;10.074;2023-10-08T15:50:27;6.00;;;4.40;;
1174;SDS011;576;48.418;10.074;2023-10-08T15:52:59;6.93;;;4.00;;